Time;durP1;ratioP1;P1;durP2;ratioP2;P2;SDS_P1;SDS_P2;PMS_P1;PMS_P2;Temp;Humidity;BMP_temperature;BMP_pressure;BME280_temperature;BME280_humidity;BME280_pressure;Samples;Min_cycle;Max_cycle;Signal;HPM_P1;HPM_P2
2022/12/27 00:00:36;;;;;;;54.93;18.23;;;;;;;-141.28;100.00;51164.50;5053642;28;20455;-77
2022/12/27 00:03:04;;;;;;;44.57;15.17;;;;;;;-141.28;100.00;50940.69;5056378;28;20448;-75
2022/12/27 00:05:31;;;;;;;45.57;16.23;;;;;;;-141.28;100.00;51176.28;5055614;28;20458;-75
2022/12/27 00:07:58;;;;;;;50.17;15.97;;;;;;;-141.28;100.00;51150.75;5055405;28;20475;-75
2022/12/27 00:10:27;;;;;;;56.70;18.83;;;;;;;-141.28;100.00;51201.81;5055654;28;21027;-76
2022/12/27 00:12:54;;;;;;;54.60;19.13;;;;;;;-141.28;100.00;51237.13;5048175;28;20514;-77
2022/12/27 00:15:21;;;;;;;30.30;13.57;;;;;;;-141.28;100.00;51358.88;5050316;28;20435;-77
2022/12/27 00:17:49;;;;;;;31.20;14.80;;;;;;;-141.28;100.00;51447.22;5041736;28;20486;-76
2022/12/27 00:20:17;;;;;;;29.97;14.43;;;;;;;-141.28;100.00;51618.03;5044203;28;20853;-77
2022/12/27 00:22:44;;;;;;;45.97;16.27;;;;;;;-141.28;100.00;51671.06;5053390;28;20439;-77
2022/12/27 00:25:12;;;;;;;34.93;15.73;;;;;;;-141.28;100.00;51759.41;5053918;28;20448;-75
2022/12/27 00:27:40;;;;;;;35.80;14.80;;;;;;;-141.28;100.00;51779.06;5057703;28;20900;-78
2022/12/27 00:30:09;;;;;;;32.57;15.10;;;;;;;-141.28;100.00;51818.31;5061137;28;20845;-74
2022/12/27 00:32:36;;;;;;;39.37;17.73;;;;;;;-141.28;100.00;51865.47;5056863;28;20438;-79
2022/12/27 00:35:03;;;;;;;43.97;19.53;;;;;;;-141.28;100.00;51820.28;5052277;28;20438;-75
2022/12/27 00:37:30;;;;;;;43.93;20.00;;;;;;;-141.28;100.00;51881.16;5059058;28;20554;-76
2022/12/27 00:39:58;;;;;;;50.73;25.20;;;;;;;-141.28;100.00;52016.66;5070125;28;20871;-77
2022/12/27 00:42:25;;;;;;;50.57;23.70;;;;;;;-141.28;100.00;52046.13;5072847;28;20457;-77
2022/12/27 00:44:53;;;;;;;50.70;25.13;;;;;;;-141.28;100.00;52144.31;5067320;28;20815;-77
2022/12/27 00:47:21;;;;;;;56.17;28.23;;;;;;;-141.28;100.00;52173.78;5053773;28;20846;-74
2022/12/27 00:49:48;;;;;;;54.97;26.13;;;;;;;-141.28;100.00;52250.34;5052153;28;20505;-76
2022/12/27 00:52:15;;;;;;;55.37;26.90;;;;;;;-141.28;100.00;52279.81;5044842;28;20450;-75
2022/12/27 00:54:45;;;;;;;67.53;33.13;;;;;;;-141.28;100.00;52301.41;5057662;28;20438;-77
2022/12/27 00:57:12;;;;;;;63.97;30.27;;;;;;;-141.28;100.00;52352.47;5073357;28;20963;-76
2022/12/27 00:59:39;;;;;;;63.33;29.43;;;;;;;-141.28;100.00;52332.84;5054487;28;20483;-75
2022/12/27 01:02:07;;;;;;;61.53;29.03;;;;;;;-141.28;100.00;52236.63;5064169;28;20961;-76
2022/12/27 01:04:34;;;;;;;53.77;28.10;;;;;;;-141.28;100.00;52415.31;5059143;28;20949;-77
2022/12/27 01:07:01;;;;;;;61.40;29.80;;;;;;;-141.28;100.00;52434.97;5072801;28;21022;-76
2022/12/27 01:09:28;;;;;;;53.73;27.90;;;;;;;-141.28;100.00;52423.19;5072317;28;20527;-76
2022/12/27 01:11:55;;;;;;;56.27;27.73;;;;;;;-141.28;100.00;52570.50;5072461;28;20439;-79
2022/12/27 01:14:24;;;;;;;55.17;27.83;;;;;;;-141.28;100.00;52497.81;5071859;28;20446;-75
2022/12/27 01:16:51;;;;;;;54.70;27.97;;;;;;;-141.28;100.00;52816.00;5071828;28;20816;-77
2022/12/27 01:19:19;;;;;;;59.90;27.73;;;;;;;-141.28;100.00;52876.91;5071602;28;20493;-78
2022/12/27 01:21:46;;;;;;;55.50;26.13;;;;;;;-141.28;100.00;52882.78;5070008;28;20445;-76
2022/12/27 01:24:14;;;;;;;51.43;25.37;;;;;;;-141.28;100.00;52933.88;5061209;28;20449;-75
2022/12/27 01:26:41;;;;;;;58.17;25.87;;;;;;;-141.28;100.00;52908.31;5059002;28;20447;-77
2022/12/27 01:29:13;;;;;;;52.13;24.63;;;;;;;-141.28;100.00;52975.13;5072505;28;20446;-78
2022/12/27 01:31:40;;;;;;;49.80;25.93;;;;;;;-141.28;100.00;52990.81;5072535;28;20937;-75
2022/12/27 01:34:07;;;;;;;52.03;25.00;;;;;;;-141.28;100.00;53004.56;5073133;28;20519;-75
2022/12/27 01:36:36;;;;;;;46.37;23.00;;;;;;;-141.28;100.00;53130.28;5071208;28;20446;-78
2022/12/27 01:39:03;;;;;;;46.67;22.87;;;;;;;-141.28;100.00;53165.66;5059679;28;20482;-76
2022/12/27 01:44:53;;;;;;;43.40;21.33;;;;;;;-141.28;100.00;53008.50;5071579;28;20855;-76
2022/12/27 01:47:40;;;;;;;43.43;22.10;;;;;;;-141.28;100.00;52914.22;5050562;28;20430;-75
2022/12/27 01:50:12;;;;;;;42.43;22.73;;;;;;;-141.28;100.00;53024.22;5070549;28;20452;-77
2022/12/27 01:52:46;;;;;;;44.23;22.40;;;;;;;-141.28;100.00;53008.50;5071335;28;20442;-78
2022/12/27 01:55:18;;;;;;;43.63;22.50;;;;;;;-141.28;100.00;53024.22;5046505;28;20929;-75
2022/12/27 01:57:46;;;;;;;41.23;20.47;;;;;;;-141.28;100.00;53032.09;5070962;28;20431;-77
2022/12/27 02:00:14;;;;;;;40.97;20.37;;;;;;;-141.28;100.00;53114.59;5069901;28;20435;-79
2022/12/27 02:02:41;;;;;;;40.50;21.43;;;;;;;-141.28;100.00;53118.50;5060902;28;20512;-75
2022/12/27 02:05:12;;;;;;;39.73;19.97;;;;;;;-141.28;100.00;53106.72;5071114;28;20454;-75
2022/12/27 02:07:53;;;;;;;38.03;18.60;;;;;;;-141.28;100.00;53140.13;5071730;28;20454;-75
2022/12/27 02:10:20;;;;;;;38.67;19.63;;;;;;;-141.28;100.00;53169.59;5071056;28;20446;-76
2022/12/27 02:12:47;;;;;;;40.77;20.93;;;;;;;-141.28;100.00;53069.41;5071035;28;20454;-75
2022/12/27 02:15:15;;;;;;;42.30;18.83;;;;;;;-141.28;100.00;53087.09;5052438;28;20874;-75
2022/12/27 02:17:42;;;;;;;32.80;16.87;;;;;;;-141.28;100.00;53114.59;5054654;28;20442;-78
2022/12/27 02:20:14;;;;;;;36.10;17.80;;;;;;;-141.28;100.00;53094.94;5070509;28;20624;-75
2022/12/27 02:26:12;;;;;;;32.13;17.03;;;;;;;-141.28;100.00;52792.44;5044536;28;20455;-75
2022/12/27 02:29:11;;;;;;;36.10;17.67;;;;;;;-141.28;100.00;52778.69;5051649;28;20789;-76
2022/12/27 02:31:46;;;;;;;32.43;17.33;;;;;;;-141.28;100.00;52737.44;5064737;28;20508;-76
2022/12/27 02:34:20;;;;;;;35.47;17.90;;;;;;;-141.28;100.00;52835.66;5071178;28;20454;-75
2022/12/27 02:36:48;;;;;;;31.90;16.50;;;;;;;-141.28;100.00;52804.22;5070444;28;20455;-77
2022/12/27 02:39:18;;;;;;;34.40;18.87;;;;;;;-141.28;100.00;52788.50;5071036;28;20477;-75
2022/12/27 02:53:07;;;;;;;32.87;17.80;;;;;;;-141.28;100.00;52764.94;5057687;28;20489;-77
2022/12/27 02:58:41;;;;;;;42.33;23.30;;;;;;;-141.28;100.00;52666.72;5066764;28;20474;-77
2022/12/27 03:04:20;;;;;;;41.77;21.20;;;;;;;-141.28;100.00;52654.94;5065750;28;20435;-74
2022/12/27 03:07:18;;;;;;;46.60;22.93;;;;;;;-141.28;100.00;52768.88;5064124;28;20431;-76
2022/12/27 03:15:57;;;;;;;47.00;23.17;;;;;;;-141.28;100.00;52442.81;5055020;28;21357;-75
2022/12/27 03:19:05;;;;;;;45.90;22.73;;;;;;;-141.28;100.00;52372.13;5055745;28;20945;-75
2022/12/27 03:27:16;;;;;;;48.17;23.47;;;;;;;-141.28;100.00;52403.53;5064226;28;20576;-76
2022/12/27 03:35:35;;;;;;;56.03;26.67;;;;;;;-141.28;100.00;52336.78;5007785;28;20449;-76
2022/12/27 03:38:04;;;;;;;58.40;26.97;;;;;;;-141.28;100.00;52456.56;5039060;28;20962;-74
2022/12/27 03:43:36;;;;;;;50.80;25.50;;;;;;;-141.28;100.00;52419.25;5041533;28;20546;-78
2022/12/27 03:46:32;;;;;;;49.23;25.23;;;;;;;-141.28;100.00;52328.91;5054330;28;20881;-76
2022/12/27 03:49:16;;;;;;;49.67;24.83;;;;;;;-141.28;100.00;52285.72;5044653;28;20812;-75
2022/12/27 03:52:02;;;;;;;52.50;25.10;;;;;;;-141.28;100.00;52254.28;5067203;28;20450;-77
2022/12/27 03:54:33;;;;;;;50.30;25.10;;;;;;;-141.28;100.00;52295.53;5069479;28;20427;-79
2022/12/27 03:57:02;;;;;;;53.83;25.77;;;;;;;-141.28;100.00;52352.47;5074340;28;20446;-77
2022/12/27 03:59:29;;;;;;;58.17;26.33;;;;;;;-141.28;100.00;52372.13;5070356;28;20826;-78
2022/12/27 04:01:56;;;;;;;53.07;26.67;;;;;;;-141.28;100.00;52254.28;5066579;28;20450;-77
2022/12/27 04:04:23;;;;;;;53.07;26.80;;;;;;;-141.28;100.00;52266.06;5073355;28;20445;-76
2022/12/27 04:06:52;;;;;;;51.77;26.27;;;;;;;-141.28;100.00;52207.16;5073792;28;20572;-79
2022/12/27 04:34:41;;;;;;;56.03;25.60;;;;;;;-141.28;100.00;52211.09;5073130;28;20516;-75
2022/12/27 04:37:10;;;;;;;61.27;27.43;;;;;;;-141.28;100.00;52171.81;5072333;28;20965;-78
2022/12/27 04:39:38;;;;;;;61.37;27.77;;;;;;;-141.28;100.00;52262.13;5070111;28;20478;-75
2022/12/27 04:55:57;;;;;;;67.13;29.30;;;;;;;-141.28;100.00;52254.28;5069893;28;20466;-78
2022/12/27 04:58:26;;;;;;;54.07;26.33;;;;;;;-141.28;100.00;52360.34;5052877;28;20452;-78
2022/12/27 05:03:39;;;;;;;60.20;29.13;;;;;;;-141.28;100.00;52352.47;5059773;28;20426;-76
2022/12/27 05:06:07;;;;;;;58.97;27.33;;;;;;;-141.28;100.00;52444.78;5072302;28;20475;-76
2022/12/27 05:14:08;;;;;;;60.53;29.07;;;;;;;-141.28;100.00;52332.84;5071689;28;20434;-75
2022/12/27 05:16:39;;;;;;;63.87;28.83;;;;;;;-141.28;100.00;52368.19;5059423;28;20447;-74
2022/12/27 05:19:08;;;;;;;63.00;30.53;;;;;;;-141.28;100.00;52387.84;5038607;28;20489;-79
2022/12/27 05:21:36;;;;;;;57.17;26.00;;;;;;;-141.28;100.00;52332.84;5052447;28;20458;-77
2022/12/27 05:26:48;;;;;;;70.43;30.30;;;;;;;-141.28;100.00;52158.06;5046297;28;20484;-75
2022/12/27 05:29:20;;;;;;;67.07;30.80;;;;;;;-141.28;100.00;52407.47;5059364;28;20962;-78
2022/12/27 05:31:47;;;;;;;60.83;29.57;;;;;;;-141.28;100.00;52505.69;5071498;28;20500;-76
2022/12/27 05:34:14;;;;;;;66.80;29.57;;;;;;;-141.28;100.00;52517.47;5072187;28;20469;-74
2022/12/27 05:36:41;;;;;;;60.67;28.70;;;;;;;-141.28;100.00;52647.09;5058235;28;20569;-75
2022/12/27 05:39:08;;;;;;;83.43;36.67;;;;;;;-141.28;100.00;52686.38;5072442;28;20481;-75
2022/12/27 05:41:36;;;;;;;74.27;33.13;;;;;;;-141.28;100.00;52721.72;5076058;28;20443;-74
2022/12/27 05:44:03;;;;;;;69.80;31.17;;;;;;;-141.28;100.00;52780.66;5066993;28;20934;-75
2022/12/27 05:46:32;;;;;;;64.13;29.00;;;;;;;-141.28;100.00;52949.56;5068034;28;20449;-73
2022/12/27 05:49:00;;;;;;;61.50;28.63;;;;;;;-141.28;100.00;53004.56;5078612;28;20500;-74
2022/12/27 05:51:28;;;;;;;50.00;24.50;;;;;;;-141.28;100.00;53083.16;5086776;28;20480;-73
2022/12/27 05:53:54;;;;;;;45.60;22.90;;;;;;;-141.28;100.00;53149.94;5066296;28;20820;-77
2022/12/27 05:56:22;;;;;;;46.10;23.03;;;;;;;-141.28;100.00;53279.59;5057011;28;20447;-77
2022/12/27 05:58:52;;;;;;;54.93;26.37;;;;;;;-141.28;100.00;52955.47;5084349;28;20445;-77
2022/12/27 06:01:20;;;;;;;59.97;29.03;;;;;;;-141.28;100.00;53318.88;5073683;28;20480;-76
2022/12/27 06:03:50;;;;;;;55.17;29.13;;;;;;;-141.28;100.00;52969.22;5071527;28;20434;-77
2022/12/27 06:06:18;;;;;;;67.03;31.37;;;;;;;-141.28;100.00;53358.19;5071076;28;20957;-77
2022/12/27 06:08:46;;;;;;;55.13;30.13;;;;;;;-141.28;100.00;53332.63;5071913;28;20474;-77
2022/12/27 06:11:16;;;;;;;57.23;30.30;;;;;;;-141.28;100.00;53362.09;5071783;28;20434;-75
2022/12/27 06:13:48;;;;;;;61.37;31.33;;;;;;;-141.28;100.00;53456.41;5071394;28;20446;-76
2022/12/27 06:16:15;;;;;;;62.60;31.67;;;;;;;-141.28;100.00;53273.69;5057353;28;20438;-76
2022/12/27 06:18:43;;;;;;;56.77;29.07;;;;;;;-141.28;100.00;53421.03;5071003;28;20466;-75
2022/12/27 06:21:14;;;;;;;57.47;27.73;;;;;;;-141.28;100.00;53499.63;5069686;28;20505;-78
2022/12/27 06:23:44;;;;;;;55.50;27.63;;;;;;;-141.28;100.00;53621.44;5069619;28;20446;-80
2022/12/27 06:26:14;;;;;;;46.23;25.50;;;;;;;-141.28;100.00;53758.97;5041412;28;20443;-77
2022/12/27 06:28:41;;;;;;;53.90;26.03;;;;;;;-141.28;100.00;53933.84;5067181;28;20525;-75
2022/12/27 06:31:09;;;;;;;48.63;24.50;;;;;;;-141.28;100.00;54254.13;5061870;28;20450;-78
2022/12/27 06:33:38;;;;;;;49.40;24.17;;;;;;;-141.28;100.00;54427.06;5052636;28;20619;-77
2022/12/27 06:36:08;;;;;;;42.50;23.73;;;;;;;-141.28;100.00;54523.34;5068459;28;20450;-75
2022/12/27 06:38:36;;;;;;;40.27;21.30;;;;;;;-141.28;100.00;54431.00;5071053;28;20435;-77
2022/12/27 06:41:05;;;;;;;38.73;21.23;;;;;;;-141.28;100.00;54438.84;5065544;28;20485;-76
2022/12/27 06:43:33;;;;;;;24.97;14.40;;;;;;;-141.28;100.00;54124.44;5071245;28;20836;-76
2022/12/27 06:46:02;;;;;;;29.67;14.80;;;;;;;-141.28;100.00;53971.16;5071333;28;20443;-75
2022/12/27 06:48:30;;;;;;;29.73;16.20;;;;;;;-141.28;100.00;53466.22;5058151;28;20447;-75
2022/12/27 06:50:57;;;;;;;31.23;16.40;;;;;;;-141.28;100.00;52639.22;5071540;28;20859;-75
2022/12/27 06:53:24;;;;;;;26.30;14.93;;;;;;;-141.28;100.00;51796.72;5066904;28;20453;-75
2022/12/27 06:55:53;;;;;;;28.50;15.00;;;;;;;-141.28;100.00;51099.72;5065119;28;20872;-78
2022/12/27 06:58:20;;;;;;;27.50;14.63;;;;;;;-141.28;100.00;50989.78;5072270;28;20434;-79
2022/12/27 07:00:47;;;;;;;28.37;14.63;;;;;;;-141.28;100.00;51178.25;5071042;28;20557;-77
2022/12/27 07:03:14;;;;;;;27.33;15.37;;;;;;;-141.28;100.00;51714.25;5066206;28;20435;-76
2022/12/27 07:05:41;;;;;;;26.90;16.37;;;;;;;-141.28;100.00;51832.06;5051386;28;20444;-74
2022/12/27 07:08:08;;;;;;;26.33;16.07;;;;;;;-141.28;100.00;51955.78;5050966;28;20471;-77
2022/12/27 07:10:39;;;;;;;29.17;17.17;;;;;;;-141.28;100.00;51896.88;5051645;28;20439;-76
2022/12/27 07:13:08;;;;;;;33.10;17.00;;;;;;;-141.28;100.00;51794.75;5038947;28;20469;-75
2022/12/27 07:15:35;;;;;;;35.70;20.10;;;;;;;-141.28;100.00;51559.13;5068360;28;20435;-78
2022/12/27 07:18:02;;;;;;;25.47;16.07;;;;;;;-141.28;100.00;51378.50;5063304;28;20443;-78
2022/12/27 07:20:29;;;;;;;31.17;18.23;;;;;;;-141.28;100.00;51472.75;5051035;28;20479;-78
2022/12/27 07:22:57;;;;;;;23.67;14.57;;;;;;;-141.28;100.00;51519.88;5052585;28;20508;-77
2022/12/27 07:25:24;;;;;;;26.07;14.63;;;;;;;-141.28;100.00;51649.47;5045109;28;20450;-76
2022/12/27 07:27:51;;;;;;;28.97;16.33;;;;;;;-141.28;100.00;51645.53;5061835;28;20884;-77
2022/12/27 07:30:19;;;;;;;28.37;14.37;;;;;;;-141.28;100.00;51512.00;5061661;28;20463;-76
2022/12/27 07:32:46;;;;;;;30.73;16.10;;;;;;;-141.28;100.00;51284.25;5075769;28;20873;-76
2022/12/27 07:35:14;;;;;;;29.90;16.73;;;;;;;-141.28;100.00;51029.03;5072728;28;20509;-76
2022/12/27 07:37:42;;;;;;;29.53;16.87;;;;;;;-141.28;100.00;50809.16;5069175;28;20434;-75
2022/12/27 07:40:10;;;;;;;36.67;17.97;;;;;;;-141.28;100.00;50656.06;5077464;28;20481;-75
2022/12/27 07:42:37;;;;;;;32.67;18.10;;;;;;;-141.28;100.00;50563.78;5080370;28;20445;-76
2022/12/27 07:45:05;;;;;;;35.97;20.20;;;;;;;-141.28;100.00;50534.34;5066503;28;20434;-77
2022/12/27 07:47:33;;;;;;;43.43;24.83;;;;;;;-141.28;100.00;50487.25;5070498;28;20443;-77
2022/12/27 07:50:00;;;;;;;36.10;19.67;;;;;;;-141.28;100.00;50365.53;5067518;28;20435;-77
2022/12/27 07:52:27;;;;;;;29.33;17.37;;;;;;;-141.28;100.00;50369.47;5067998;28;20454;-78
2022/12/27 07:54:54;;;;;;;33.83;19.17;;;;;;;-141.28;100.00;50310.59;5056401;28;20535;-75
2022/12/27 07:57:22;;;;;;;32.50;18.63;;;;;;;-141.28;100.00;50269.38;5054835;28;20469;-75
2022/12/27 07:59:49;;;;;;;31.07;17.77;;;;;;;-141.28;100.00;50247.78;5054334;28;20486;-75
2022/12/27 08:02:16;;;;;;;31.97;18.23;;;;;;;-141.28;100.00;50239.94;5055417;28;20516;-78
2022/12/27 08:04:45;;;;;;;34.37;20.07;;;;;;;-141.28;100.00;50161.41;5056582;28;20448;-74
2022/12/27 08:07:15;;;;;;;35.30;19.27;;;;;;;-141.28;100.00;50100.56;5055855;28;20966;-75
2022/12/27 08:09:44;;;;;;;34.50;19.97;;;;;;;-141.28;100.00;50073.09;5042055;28;20989;-74
2022/12/27 08:12:13;;;;;;;34.03;19.73;;;;;;;-141.28;100.00;50014.22;5054120;28;20459;-77
2022/12/27 08:14:40;;;;;;;31.60;19.00;;;;;;;-141.28;100.00;50004.41;5065155;28;20475;-76
2022/12/27 08:17:14;;;;;;;38.13;20.60;;;;;;;-141.28;100.00;50008.34;5065181;28;20459;-74
2022/12/27 08:19:41;;;;;;;38.03;20.63;;;;;;;-141.28;100.00;50026.00;5059104;28;20436;-75
2022/12/27 08:22:10;;;;;;;34.20;19.77;;;;;;;-141.28;100.00;50012.25;5061651;28;20933;-74
2022/12/27 08:24:40;;;;;;;37.03;22.13;;;;;;;-141.28;100.00;49976.94;5057529;28;20463;-74
2022/12/27 08:27:07;;;;;;;36.73;19.80;;;;;;;-141.28;100.00;49996.56;5060181;28;20447;-77
2022/12/27 08:29:35;;;;;;;44.53;22.47;;;;;;;-141.28;100.00;50035.81;5064567;28;20446;-74
2022/12/27 08:32:03;;;;;;;34.60;21.27;;;;;;;-141.28;100.00;50039.72;5060731;28;20442;-76
2022/12/27 08:34:30;;;;;;;47.67;24.07;;;;;;;-141.28;100.00;50057.41;5073217;28;20471;-76
2022/12/27 08:36:57;;;;;;;38.23;22.80;;;;;;;-141.28;100.00;50037.78;5073270;28;20501;-76
2022/12/27 08:39:28;;;;;;;48.53;25.50;;;;;;;-141.28;100.00;50022.06;5072839;28;20512;-75
2022/12/27 08:41:57;;;;;;;47.83;25.93;;;;;;;-141.28;100.00;50063.28;5073810;28;20504;-75
2022/12/27 08:44:26;;;;;;;47.77;26.60;;;;;;;-141.28;100.00;50075.06;5054365;28;20526;-78
2022/12/27 08:46:53;;;;;;;44.57;25.50;;;;;;;-141.28;100.00;50088.78;5053365;28;20526;-75
2022/12/27 08:49:21;;;;;;;53.73;27.97;;;;;;;-141.28;100.00;50020.09;5053027;28;20478;-75
2022/12/27 08:51:50;;;;;;;48.00;26.70;;;;;;;-141.28;100.00;50128.06;5053219;28;20578;-74
2022/12/27 08:54:17;;;;;;;45.37;25.13;;;;;;;-141.28;100.00;50053.47;5053341;28;20448;-74
2022/12/27 08:56:46;;;;;;;38.50;22.37;;;;;;;-141.28;100.00;50094.69;5053253;28;20439;-76
2022/12/27 08:59:15;;;;;;;41.53;21.63;;;;;;;-141.28;100.00;50084.88;5053763;28;20443;-76
2022/12/27 09:01:44;;;;;;;44.80;20.63;;;;;;;-141.28;100.00;50059.34;5053621;28;21097;-77
2022/12/27 09:04:12;;;;;;;32.93;19.50;;;;;;;-141.28;100.00;50069.16;5072669;28;20557;-74
2022/12/27 09:06:40;;;;;;;39.63;20.50;;;;;;;-141.28;100.00;50094.69;5056175;28;20858;-76
2022/12/27 09:09:08;;;;;;;35.73;20.37;;;;;;;-141.28;100.00;50055.44;5050458;28;20474;-75
2022/12/27 09:11:35;;;;;;;35.40;20.40;;;;;;;-141.28;100.00;50071.13;5056855;28;20501;-75
2022/12/27 09:14:06;;;;;;;37.80;20.40;;;;;;;-141.28;100.00;50047.59;5061471;28;20450;-76
2022/12/27 09:16:34;;;;;;;37.63;21.17;;;;;;;-141.28;100.00;50069.16;5056240;28;20455;-75
2022/12/27 09:19:02;;;;;;;39.50;19.63;;;;;;;-141.28;100.00;50067.22;5052553;28;20545;-75
2022/12/27 09:21:31;;;;;;;41.17;19.97;;;;;;;-141.28;100.00;50096.66;5052514;28;20494;-78
2022/12/27 09:24:00;;;;;;;34.50;18.03;;;;;;;-141.28;100.00;50063.28;5051673;28;20440;-76
2022/12/27 09:26:30;;;;;;;45.10;18.00;;;;;;;-141.28;100.00;50114.31;5043590;28;20447;-78
2022/12/27 09:29:00;;;;;;;31.17;17.07;;;;;;;-141.28;100.00;50130.00;5070239;28;20791;-76
2022/12/27 09:31:30;;;;;;;35.90;20.00;;;;;;;-141.28;100.00;50141.78;5071925;28;20952;-76
2022/12/27 09:33:59;;;;;;;31.07;17.40;;;;;;;-141.28;100.00;50153.56;5071591;28;20545;-77
2022/12/27 09:36:27;;;;;;;33.40;18.87;;;;;;;-141.28;100.00;50153.56;5071698;28;20442;-77
2022/12/27 09:38:56;;;;;;;31.73;18.50;;;;;;;-141.28;100.00;50145.72;5071644;28;20439;-76
2022/12/27 09:41:39;;;;;;;30.80;17.03;;;;;;;-141.28;100.00;50131.97;5071297;28;20478;-78
2022/12/27 09:44:11;;;;;;;28.63;15.93;;;;;;;-141.28;100.00;50141.78;5072121;28;20442;-77
2022/12/27 09:46:46;;;;;;;30.90;15.83;;;;;;;-141.28;100.00;50126.09;5071144;28;21021;-79
2022/12/27 09:49:18;;;;;;;29.27;14.97;;;;;;;-141.28;100.00;50141.78;5072127;28;20925;-76
2022/12/27 09:51:50;;;;;;;26.00;15.33;;;;;;;-141.28;100.00;50120.19;5070962;28;20447;-76
2022/12/27 09:54:25;;;;;;;24.13;14.67;;;;;;;-141.28;100.00;50139.81;5071668;28;20450;-78
2022/12/27 09:56:52;;;;;;;26.90;14.90;;;;;;;-141.28;100.00;50102.53;5048806;28;20450;-77
2022/12/27 09:59:24;;;;;;;23.87;15.53;;;;;;;-141.28;100.00;50128.06;5072376;28;20531;-78
2022/12/27 10:01:53;;;;;;;33.13;16.27;;;;;;;-141.28;100.00;50086.84;5058325;28;20482;-76
2022/12/27 10:04:20;;;;;;;28.13;16.20;;;;;;;-141.28;100.00;50110.38;5059164;28;20435;-77
2022/12/27 10:07:04;;;;;;;33.53;17.17;;;;;;;-141.28;100.00;50145.72;5065008;28;20455;-78
2022/12/27 10:09:43;;;;;;;27.73;16.27;;;;;;;-141.28;100.00;50108.44;5053693;28;20988;-77
2022/12/27 10:12:23;;;;;;;26.67;16.57;;;;;;;-141.28;100.00;50116.28;5063408;28;20938;-76
2022/12/27 10:15:03;;;;;;;26.03;15.37;;;;;;;-141.28;100.00;50183.00;5075598;28;20469;-73
2022/12/27 10:17:45;;;;;;;23.77;14.57;;;;;;;-141.28;100.00;50184.97;5078416;28;20530;-74
2022/12/27 10:20:23;;;;;;;26.90;15.33;;;;;;;-141.28;100.00;50230.13;5082071;28;20771;-74
2022/12/27 10:22:52;;;;;;;27.60;13.70;;;;;;;-141.28;100.00;50267.41;5082955;28;20445;-74
2022/12/27 10:25:22;;;;;;;21.20;12.97;;;;;;;-141.28;100.00;50326.28;5049831;28;20506;-75
2022/12/27 10:27:51;;;;;;;24.07;13.33;;;;;;;-141.28;100.00;50347.88;5060468;28;20459;-75
2022/12/27 10:30:21;;;;;;;27.33;14.20;;;;;;;-141.28;100.00;50365.53;5064581;28;20458;-73
2022/12/27 10:32:50;;;;;;;22.87;12.67;;;;;;;-141.28;100.00;50432.28;5064352;28;20953;-76
2022/12/27 10:35:19;;;;;;;22.60;12.20;;;;;;;-141.28;100.00;50514.72;5063367;28;20826;-75
2022/12/27 10:37:48;;;;;;;22.50;12.40;;;;;;;-141.28;100.00;50824.88;5063574;28;20447;-74
2022/12/27 10:40:19;;;;;;;24.90;15.90;;;;;;;-141.28;100.00;51680.88;5068345;28;20435;-74
2022/12/27 10:42:53;;;;;;;29.00;16.10;;;;;;;-141.28;100.00;52032.38;5083428;28;20245;-74
2022/12/27 10:45:31;;;;;;;23.63;14.87;;;;;;;-141.28;100.00;51918.47;5076280;28;20203;-74
2022/12/27 10:48:15;;;;;;;33.60;18.50;;;;;;;-141.28;100.00;51822.25;5077081;28;20286;-73
2022/12/27 10:50:47;;;;;;;34.97;20.77;;;;;;;-141.28;100.00;51798.69;5083442;28;20211;-75
2022/12/27 10:53:30;;;;;;;40.53;21.83;;;;;;;-141.28;100.00;51598.41;5077455;28;20254;-80
2022/12/27 10:56:08;;;;;;;30.57;20.00;;;;;;;-141.28;100.00;51319.59;5071480;28;20265;-76
2022/12/27 10:58:40;;;;;;;34.63;20.57;;;;;;;-141.28;100.00;50879.84;5071454;28;20199;-75
2022/12/27 11:01:16;;;;;;;36.63;21.20;;;;;;;-141.28;100.00;50373.38;5063218;28;20229;-75
2022/12/27 11:03:44;;;;;;;32.13;21.13;;;;;;;-141.28;100.00;50640.34;5071129;28;20209;-76
2022/12/27 11:06:22;;;;;;;30.53;20.30;;;;;;;-141.28;100.00;50412.66;5074563;28;20203;-77
2022/12/27 11:08:50;;;;;;;37.10;23.07;;;;;;;-141.28;100.00;50530.41;5074680;28;20258;-76
2022/12/27 11:11:20;;;;;;;35.30;21.83;;;;;;;-141.28;100.00;50726.72;5078949;28;20655;-74
2022/12/27 11:13:51;;;;;;;35.60;22.57;;;;;;;-141.28;100.00;50526.50;5070665;28;20200;-75
2022/12/27 11:16:27;;;;;;;45.37;21.97;;;;;;;-141.28;100.00;50626.59;5075288;28;20212;-76
2022/12/27 11:18:58;;;;;;;39.23;22.53;;;;;;;-141.28;100.00;50748.31;5069433;28;20201;-75
2022/12/27 11:21:26;;;;;;;38.37;21.37;;;;;;;-141.28;100.00;50510.78;5070784;28;20231;-79
2022/12/27 11:23:57;;;;;;;34.63;21.53;;;;;;;-141.28;100.00;50290.97;5067938;28;20258;-76
2022/12/27 11:26:26;;;;;;;36.57;21.20;;;;;;;-141.28;100.00;50082.91;5046099;28;20204;-75
2022/12/27 11:28:55;;;;;;;36.60;20.97;;;;;;;-141.28;100.00;49768.91;5055853;28;20201;-76
2022/12/27 11:31:36;;;;;;;33.57;20.70;;;;;;;-141.28;100.00;49841.50;5055083;28;20326;-77
2022/12/27 11:34:08;;;;;;;38.03;22.77;;;;;;;-141.28;100.00;49816.00;5054807;28;20745;-78
2022/12/27 11:36:39;;;;;;;32.37;21.87;;;;;;;-141.28;100.00;49596.22;5055867;28;20288;-75
2022/12/27 11:39:08;;;;;;;37.30;20.90;;;;;;;-141.28;100.00;49474.53;5055546;28;20196;-78
2022/12/27 11:41:45;;;;;;;40.37;21.97;;;;;;;-141.28;100.00;49325.41;5055917;28;20228;-77
2022/12/27 11:44:19;;;;;;;34.10;20.77;;;;;;;-141.28;100.00;49054.66;5054884;28;20203;-76
2022/12/27 11:46:56;;;;;;;37.90;21.13;;;;;;;-141.28;100.00;49027.19;5056205;28;20570;-75
2022/12/27 11:49:28;;;;;;;26.93;19.40;;;;;;;-141.28;100.00;49174.34;5055768;28;20205;-74
2022/12/27 11:52:15;;;;;;;31.40;19.17;;;;;;;-141.28;100.00;49329.34;5043371;28;20201;-77
2022/12/27 11:55:23;;;;;;;31.63;18.60;;;;;;;-141.28;100.00;49335.22;5055515;28;20280;-76
2022/12/27 11:58:13;;;;;;;28.33;18.27;;;;;;;-141.28;100.00;49317.56;5039089;28;20239;-77
2022/12/27 12:00:50;;;;;;;31.07;18.37;;;;;;;-141.28;100.00;49376.44;5054529;28;20204;-78
2022/12/27 12:03:59;;;;;;;30.17;19.27;;;;;;;-141.28;100.00;49435.31;5042883;28;20193;-77
2022/12/27 12:06:44;;;;;;;37.97;18.27;;;;;;;-141.28;100.00;49401.94;5054821;28;20421;-79
2022/12/27 12:09:26;;;;;;;34.13;20.23;;;;;;;-141.28;100.00;49584.44;5055271;28;20264;-76
2022/12/27 12:12:15;;;;;;;28.40;18.13;;;;;;;-141.28;100.00;49774.78;5054937;28;20205;-76
2022/12/27 12:15:02;;;;;;;32.43;19.53;;;;;;;-141.28;100.00;49957.31;5042651;28;20223;-78
2022/12/27 12:17:46;;;;;;;29.20;19.10;;;;;;;-141.28;100.00;50096.66;5054660;28;20208;-79
2022/12/27 12:20:43;;;;;;;31.63;19.27;;;;;;;-141.28;100.00;50249.75;5053950;28;20201;-76
2022/12/27 12:23:19;;;;;;;30.70;20.03;;;;;;;-141.28;100.00;50400.88;5054017;28;20208;-76
2022/12/27 12:26:14;;;;;;;36.40;21.17;;;;;;;-141.28;100.00;50479.38;5043237;28;20583;-77
2022/12/27 12:29:08;;;;;;;46.40;26.63;;;;;;;-141.28;100.00;50616.78;5054029;28;20199;-78
2022/12/27 12:31:55;;;;;;;41.43;24.20;;;;;;;-141.28;100.00;50695.31;5045193;28;20205;-76
2022/12/27 12:34:47;;;;;;;38.63;23.60;;;;;;;-141.28;100.00;50722.78;5045065;28;20301;-77
2022/12/27 12:37:29;;;;;;;38.87;21.63;;;;;;;-141.28;100.00;50785.59;5053691;28;20193;-76
2022/12/27 12:40:22;;;;;;;45.80;23.37;;;;;;;-141.28;100.00;50440.13;5055002;28;20200;-75
2022/12/27 12:42:57;;;;;;;41.27;21.93;;;;;;;-141.28;100.00;50387.13;5010423;28;20287;-78
2022/12/27 12:45:38;;;;;;;33.83;20.93;;;;;;;-141.28;100.00;50440.13;5042051;28;20196;-76
2022/12/27 12:48:24;;;;;;;47.90;22.30;;;;;;;-141.28;100.00;50394.97;5054721;28;20566;-76